Route Details

Aircraft Information
Group: North America Fleet
Types: B738, B752, B762, B763
Route Data
Distance: 909nm
Duration: 2h 39m
Origin METAR: KMIA 152353Z 00000KT 10SM FEW025 FEW110 BKN200 28/25 A2991 RMK AO2 SLP129 60081 T02780250 10333 20244 56009
Dest. METAR: TJSJ 152356Z 33004KT 10SM FEW038 SCT045 SCT060 28/24 A2996 RMK AO2 SLP143 60000 T02780244 10300 20278 52010
Freight Data
(for Aug 16, 2022)
Load Factor:
52%
Manifested Cargo: 55,361lbs
Financial History
Total Freight: 905,163lbs
Average Load: 0lbs/flt
Fuel Used: 269,694lbs
Avg. Fuel Used: 0lbs/flt
Fuel Expense: $244,944
Avg. Fuel Expense: $0
Avg. Fuel Cost: $0/lbs
Total Gross Income: $1,823,105
Pilot Pay: $2,019
Total Expenses: $266,515
Total Revenue: $1,305,474
Average Revenue: $0

Capitol Logistics 396




KMIA
Miami International Airport
Miami, Florida
TJSJ
Luis Munoz Marin International Airport
San Juan,

Activity Log

Date Flight Route Aircraft Duration
07/16/2022 CPX396 KLADA2 BITAC Y290 BEANO BEANO3 B763 2h 25m
06/11/2022 CPX239 KLADA2 BITAC Y290 BEANO BEANO3 B752 2h 25m
11/04/2021 CPX2141 KLADA1 BITAC HAGIT CALTO Y290 BEANO BEANO3 B762 2h 14m
08/12/2021 CPX2141 SKIPS2 SKIPS Y290 BEANO A30F 2h 24m
08/11/2021 CPX2141 SKIPS2 SKIPS Y290 BEANO A30F 2h 22m
04/13/2021 CPX2141 SKIPS2 SKIPS Y290 BEANO B763 2h 10m
09/28/2019 CPX239 SKIPS2 SKIPS Y290 BEANO B763 2h 54m
06/18/2019 CPX239 SKIPS2 SKIPS Y290 BEANO B763 2h 18m
05/26/2019 CPX239 SKIPS2 SKIPS Y290 BEANO B763 2h 20m
04/06/2019 CPX239 SKIPS2 SKIPS Y290 BEANO B763 2h 18m
02/16/2019 CPX239 SKIPS2 SKIPS Y290 BEANO BEANO3 B763 2h 14m